Aeroporto :
LOGIN :

Iscrizione | Disclaimer

   EN    FR    IT 

 










Sommario :    VFR   VFR Marginale   IFR   IFR Intensivo   IFR Molto Intensivo
Visibilità : 
Base nubi : 
>= 8 km
>= 3000ft
5 / 8 km
1000 / 3000 ft
1500m / 5 km
500 / 1000 ft
800 / 1500m
200 / 500 ft
< 800m
< 200 ft
Simboli :   Temporali  Nebbia  Neve Forte  Precipitazioni Forti  Vento > 20 kt
SIGMETs :   Varie  Temporali  Ghiacco  Turbolenza  Onda orograficha  Ceneri Vulcaniche






- Altitudine del aeroporto : 255 ft


ENGC - Gullfaks C oil platform

ULTIMO METAR :
  • 041420Z 10005KT 9999 FEW030 BKN100 13/05 Q1002 W11/S2

METARs OBSOLETI :
  • 041350Z 11005KT 9999 FEW030 BKN100 12/04 Q1002 W11/S2
  • 041320Z 11004KT 9999 FEW030 BKN100 12/04 Q1003 W11/S3
  • 041250Z 11004KT 9999 FEW030 SCT100 12/04 Q1003 W10/S3
  • 041150Z 09004KT CAVOK 13/04 Q1003 W10/S3

TAF TAF ENGC
Valido dal 04 a 12 ore il 05 a 12 ore UTC


0412/0512 08008KT 9999 FEW030
BECMG 0418/0420 16012KT
TEMPO 0420/0506 SHRA BKN012 SCT020CB
BECMG 0509/0512 03010KT



MetMap, La meteo Aeronautica in un colpo d'occhio ! - Copyright ORBIFLY Dicembre 2007 - Disclaimer

ORBIFLY MET'MAP TEAM :

Programmazione e sviluppo : Alexandra Zaïnal
Concezione : Baudouin d'Aumeries
Aiuto per la programmazione : Marc-Olivier Méhu
Supporto tecnico e logistico : Manuel Goepfert
Aiuto per la traduzione : Arnaldo La Scala

Contatto : metmap@orbifly.com




FONTI E CREDITI :

   NOAA